Time;durP1;ratioP1;P1;durP2;ratioP2;P2;SDS_P1;SDS_P2;PMS_P1;PMS_P2;Temp;Humidity;BMP_temperature;BMP_pressure;BME280_temperature;BME280_humidity;BME280_pressure;Samples;Min_cycle;Max_cycle;Signal;HPM_P1;HPM_P2
2022/06/24 00:03:00;;;;;;;5.05;1.95;;;25.10;46.90;;;;;;9181471;19;20007;-70
2022/06/24 00:06:14;;;;;;;4.10;2.08;;;25.10;47.00;;;;;;9184042;19;20090;-69
2022/06/24 00:09:19;;;;;;;;;;;25.00;46.90;;;;;;9183559;19;20022;-70
2022/06/24 00:12:32;;;;;;;3.13;2.38;;;25.00;46.80;;;;;;9179752;19;19914;-70
2022/06/24 00:15:39;;;;;;;5.15;2.20;;;24.90;46.80;;;;;;9182029;19;20491;-70
2022/06/24 00:18:46;;;;;;;7.65;2.38;;;24.80;46.80;;;;;;9183022;19;20010;-70
2022/06/24 00:22:03;;;;;;;3.95;2.10;;;24.80;46.90;;;;;;9181818;19;20026;-70
2022/06/24 00:25:13;;;;;;;6.07;2.35;;;24.70;47.00;;;;;;9182352;19;20650;-69
2022/06/24 00:28:32;;;;;;;5.68;2.05;;;24.60;46.90;;;;;;9180766;19;20030;-70
2022/06/24 00:31:39;;;;;;;6.70;2.40;;;24.60;47.00;;;;;;9182582;19;20015;-70
2022/06/24 00:34:45;;;;;;;4.22;2.10;;;24.50;46.90;;;;;;9182483;19;20171;-70
2022/06/24 00:37:52;;;;;;;2.40;2.20;;;24.40;47.00;;;;;;9184410;19;20026;-69
2022/06/24 00:41:00;;;;;;;3.95;1.90;;;24.40;47.00;;;;;;9183357;19;20014;-71
2022/06/24 00:44:13;;;;;;;7.53;2.10;;;24.30;47.10;;;;;;9184347;19;20709;-69
2022/06/24 00:47:19;;;;;;;3.40;1.88;;;24.30;47.20;;;;;;9182595;19;20014;-73
2022/06/24 00:50:27;;;;;;;5.00;1.83;;;24.20;47.20;;;;;;9182558;19;20492;-69
2022/06/24 00:53:32;;;;;;;3.75;2.15;;;24.20;47.30;;;;;;9181502;19;20429;-69
2022/06/24 00:56:37;;;;;;;4.30;2.28;;;24.20;47.30;;;;;;9182703;19;20007;-69
2022/06/24 00:59:52;;;;;;;8.23;3.08;;;24.10;47.30;;;;;;9181807;19;20018;-70
2022/06/24 01:03:02;;;;;;;3.15;2.22;;;24.10;47.40;;;;;;9181411;19;20038;-70
2022/06/24 01:06:07;;;;;;;3.90;1.90;;;24.10;47.50;;;;;;9182141;19;20043;-70
2022/06/24 01:09:19;;;;;;;2.85;2.20;;;24.00;47.50;;;;;;9181667;19;20026;-70
2022/06/24 01:12:24;;;;;;;4.82;2.20;;;24.00;47.60;;;;;;9176638;19;20014;-70
2022/06/24 01:15:32;;;;;;;2.88;2.13;;;23.90;47.60;;;;;;9181228;19;20026;-71
2022/06/24 01:18:37;;;;;;;6.80;2.45;;;23.80;48.20;;;;;;9182629;19;20014;-70
2022/06/24 01:21:46;;;;;;;6.25;2.42;;;23.80;47.60;;;;;;9182218;19;20367;-70
2022/06/24 01:24:52;;;;;;;5.47;2.55;;;23.80;47.80;;;;;;9180733;19;20453;-70
2022/06/24 01:27:57;;;;;;;3.20;2.17;;;23.70;47.80;;;;;;9178983;19;20028;-69
2022/06/24 01:31:02;;;;;;;2.22;2.03;;;23.70;47.90;;;;;;9181265;19;20356;-69
2022/06/24 01:34:08;;;;;;;3.67;2.10;;;23.70;48.00;;;;;;9181094;19;20509;-71
2022/06/24 01:37:16;;;;;;;6.57;2.30;;;23.70;48.20;;;;;;9179989;19;20021;-70
2022/06/24 01:40:24;;;;;;;2.60;2.20;;;23.60;48.30;;;;;;9180467;19;20017;-69
2022/06/24 01:43:32;;;;;;;7.82;2.33;;;23.60;48.40;;;;;;9179760;19;20014;-71
2022/06/24 01:46:37;;;;;;;10.68;2.40;;;23.60;48.40;;;;;;9178796;19;20542;-69
2022/06/24 01:49:43;;;;;;;7.35;2.35;;;23.60;48.50;;;;;;9179996;19;20375;-69
2022/06/24 01:52:51;;;;;;;7.35;2.60;;;23.60;48.60;;;;;;9182199;19;20486;-69
2022/06/24 01:55:58;;;;;;;3.78;2.15;;;23.60;48.70;;;;;;9180119;19;20434;-69
2022/06/24 01:59:03;;;;;;;5.53;2.70;;;23.60;48.70;;;;;;9181443;19;20022;-70
2022/06/24 02:02:08;;;;;;;5.00;2.40;;;23.60;48.70;;;;;;9180998;19;20369;-69
2022/06/24 02:05:20;;;;;;;3.10;2.20;;;23.60;48.80;;;;;;9177469;19;20026;-69
2022/06/24 02:08:31;;;;;;;3.40;2.25;;;23.50;48.80;;;;;;9179494;19;20018;-71
2022/06/24 02:15:06;;;;;;;4.40;2.40;;;23.60;49.00;;;;;;9176600;19;20372;-70
2022/06/24 02:18:11;;;;;;;2.90;1.95;;;23.50;48.90;;;;;;9180574;19;20042;-70
2022/06/24 02:21:17;;;;;;;3.88;2.55;;;23.60;49.00;;;;;;9179561;19;20085;-70
2022/06/24 02:24:28;;;;;;;12.77;3.15;;;23.50;49.20;;;;;;9179321;19;20017;-71
2022/06/24 02:27:33;;;;;;;11.02;3.67;;;23.50;49.80;;;;;;9189049;19;20021;-69
2022/06/24 02:30:38;;;;;;;6.95;3.40;;;23.50;50.10;;;;;;9188451;19;20092;-69
2022/06/24 02:33:43;;;;;;;6.57;3.13;;;23.50;50.80;;;;;;9188625;19;20019;-69
2022/06/24 02:36:49;;;;;;;6.82;3.33;;;23.50;51.30;;;;;;9187039;19;20022;-68
2022/06/24 02:40:45;;;;;;;9.00;3.28;;;23.50;51.70;;;;;;9187555;19;20018;-69
2022/06/24 02:43:23;;;;;;;4.05;3.03;;;23.50;52.20;;;;;;9189913;19;20128;-68
2022/06/24 02:46:28;;;;;;;5.60;3.65;;;23.40;52.30;;;;;;9188755;19;20468;-70
2022/06/24 02:49:34;;;;;;;4.70;3.40;;;23.40;52.60;;;;;;9184748;19;20014;-69
2022/06/24 02:52:38;;;;;;;4.10;3.30;;;23.40;53.00;;;;;;9186671;19;20018;-69
2022/06/24 02:55:48;;;;;;;12.68;3.60;;;23.40;53.20;;;;;;9186872;19;20019;-71
2022/06/24 02:58:53;;;;;;;4.32;3.50;;;23.30;53.60;;;;;;9188177;19;20090;-69
2022/06/24 03:01:59;;;;;;;11.02;3.70;;;23.30;53.70;;;;;;9186294;19;20015;-69
2022/06/24 03:05:04;;;;;;;4.70;3.17;;;23.30;54.00;;;;;;9185535;19;20119;-69
2022/06/24 03:08:15;;;;;;;4.72;3.03;;;23.20;54.30;;;;;;9185280;19;20022;-69
2022/06/24 03:11:23;;;;;;;6.43;4.00;;;23.20;54.50;;;;;;9182667;19;20373;-68
2022/06/24 03:14:28;;;;;;;10.32;3.53;;;23.10;54.80;;;;;;9186184;19;20022;-69
2022/06/24 03:17:33;;;;;;;5.85;4.13;;;23.10;54.80;;;;;;9185769;19;20018;-67
2022/06/24 03:20:38;;;;;;;6.80;4.03;;;23.00;55.00;;;;;;9184971;19;20025;-68
2022/06/24 03:23:52;;;;;;;9.63;4.82;;;23.00;55.30;;;;;;9186788;19;20769;-68
2022/06/24 03:27:00;;;;;;;9.32;4.72;;;22.90;55.40;;;;;;9187109;19;20017;-67
2022/06/24 03:30:06;;;;;;;9.57;4.97;;;22.90;55.80;;;;;;9188063;19;20024;-69
2022/06/24 03:33:11;;;;;;;9.43;4.85;;;22.80;56.10;;;;;;9185008;19;20018;-68
2022/06/24 03:36:16;;;;;;;11.77;5.90;;;22.80;56.20;;;;;;9183462;19;20025;-69
2022/06/24 03:39:21;;;;;;;13.77;7.78;;;22.70;56.50;;;;;;9185322;19;20022;-67
2022/06/24 03:42:29;;;;;;;15.10;9.38;;;22.70;56.90;;;;;;9187244;19;20467;-68
2022/06/24 03:45:35;;;;;;;23.25;9.30;;;22.70;57.50;;;;;;9186897;19;20434;-69
2022/06/24 03:48:40;;;;;;;22.00;10.77;;;22.60;57.60;;;;;;9182328;19;20472;-68
2022/06/24 03:51:45;;;;;;;15.90;9.68;;;22.60;58.00;;;;;;9184648;19;20018;-68
2022/06/24 03:54:50;;;;;;;13.68;9.27;;;22.60;58.40;;;;;;9184837;19;20018;-68
2022/06/24 03:57:57;;;;;;;16.58;9.25;;;22.60;58.80;;;;;;9183817;19;20022;-68
2022/06/24 04:01:04;;;;;;;14.73;9.15;;;22.50;59.20;;;;;;9185741;19;20483;-67
2022/06/24 04:04:09;;;;;;;16.83;8.80;;;22.50;59.40;;;;;;9183879;19;20029;-69
2022/06/24 04:07:14;;;;;;;19.08;9.02;;;22.50;59.70;;;;;;9183280;19;20019;-68
2022/06/24 04:10:19;;;;;;;15.82;8.27;;;22.50;59.90;;;;;;9185936;19;20018;-67
2022/06/24 04:13:27;;;;;;;15.52;7.32;;;22.50;60.20;;;;;;9181582;19;20015;-68
2022/06/24 04:16:32;;;;;;;13.25;7.47;;;22.50;60.70;;;;;;9180852;19;20011;-68
2022/06/24 04:19:37;;;;;;;13.15;7.68;;;22.50;60.70;;;;;;9183124;19;20029;-68
2022/06/24 04:22:43;;;;;;;10.38;7.32;;;22.50;60.90;;;;;;9184556;19;20006;-68
2022/06/24 04:25:49;;;;;;;16.33;8.02;;;22.60;61.20;;;;;;9182864;19;20010;-67
2022/06/24 04:28:57;;;;;;;12.07;8.40;;;22.50;61.40;;;;;;9183127;19;20356;-68
2022/06/24 04:32:02;;;;;;;14.30;8.07;;;22.60;61.70;;;;;;9183684;19;20018;-68
2022/06/24 04:35:08;;;;;;;9.88;6.28;;;22.60;61.70;;;;;;9182879;19;20010;-70
2022/06/24 04:38:13;;;;;;;14.75;6.65;;;22.60;61.80;;;;;;9184272;19;20033;-68
2022/06/24 04:41:19;;;;;;;14.50;6.85;;;22.60;62.00;;;;;;9184182;19;20028;-69
2022/06/24 04:44:26;;;;;;;11.30;6.55;;;22.60;62.10;;;;;;9182077;19;20359;-69
2022/06/24 04:47:31;;;;;;;12.73;6.97;;;22.60;62.40;;;;;;9179181;19;20015;-69
2022/06/24 04:50:36;;;;;;;13.05;6.63;;;22.60;62.30;;;;;;9181966;19;20018;-69
2022/06/24 04:53:49;;;;;;;13.73;6.90;;;22.60;62.50;;;;;;9181796;19;20014;-69
2022/06/24 04:56:54;;;;;;;14.38;6.85;;;22.60;62.70;;;;;;9183205;19;20479;-69
2022/06/24 05:00:02;;;;;;;12.77;7.15;;;22.70;62.80;;;;;;9181499;19;20021;-69
2022/06/24 05:03:07;;;;;;;14.48;7.15;;;22.70;63.10;;;;;;9180841;19;20116;-69
2022/06/24 05:06:13;;;;;;;11.80;7.43;;;22.70;63.10;;;;;;9181294;19;20022;-69
2022/06/24 05:09:18;;;;;;;14.48;7.95;;;22.70;63.20;;;;;;9181392;19;20018;-69
2022/06/24 05:12:23;;;;;;;8.52;6.68;;;22.70;63.30;;;;;;9175236;19;20014;-69
2022/06/24 05:15:33;;;;;;;9.70;6.35;;;22.70;63.40;;;;;;9182337;19;20022;-68
2022/06/24 05:18:38;;;;;;;10.05;6.28;;;22.70;63.80;;;;;;9180992;19;20030;-69
2022/06/24 05:21:43;;;;;;;9.70;6.18;;;22.70;63.70;;;;;;9182689;19;20365;-69
2022/06/24 05:24:48;;;;;;;10.80;6.47;;;22.70;63.90;;;;;;9180872;19;20128;-70
2022/06/24 05:27:53;;;;;;;13.30;6.70;;;22.70;63.90;;;;;;9182666;19;20003;-70
2022/06/24 05:31:01;;;;;;;9.60;6.32;;;22.80;64.10;;;;;;9181543;19;20015;-70
2022/06/24 05:34:06;;;;;;;11.00;6.00;;;22.80;64.30;;;;;;9181667;19;20064;-69
2022/06/24 05:37:12;;;;;;;9.35;6.40;;;22.80;64.30;;;;;;9180059;19;20015;-69
2022/06/24 05:40:17;;;;;;;9.05;6.57;;;22.80;64.30;;;;;;9180331;19;20018;-68
2022/06/24 05:43:22;;;;;;;14.45;6.90;;;22.80;64.40;;;;;;9180251;19;20006;-68
2022/06/24 05:46:30;;;;;;;10.40;5.80;;;22.80;64.50;;;;;;9181828;19;20010;-70
2022/06/24 05:49:35;;;;;;;18.30;6.57;;;22.80;64.80;;;;;;9180858;19;20018;-71
2022/06/24 05:56:03;;;;;;;10.48;5.93;;;22.80;64.70;;;;;;9181019;19;20014;-70
2022/06/24 05:59:08;;;;;;;14.30;6.63;;;22.90;65.10;;;;;;9179852;19;20014;-67
2022/06/24 06:02:18;;;;;;;11.27;6.63;;;22.90;64.90;;;;;;9176820;19;20082;-70
2022/06/24 06:05:24;;;;;;;11.90;6.03;;;22.90;65.20;;;;;;9170679;19;20066;-68
2022/06/24 06:08:29;;;;;;;8.90;5.82;;;22.90;65.10;;;;;;9167851;19;20014;-68
2022/06/24 06:11:36;;;;;;;7.35;5.85;;;22.90;65.10;;;;;;9165448;19;20560;-69
2022/06/24 06:14:41;;;;;;;7.40;5.78;;;22.90;65.20;;;;;;9174540;19;20010;-70
2022/06/24 06:17:49;;;;;;;12.88;7.00;;;22.90;65.30;;;;;;9174050;19;20020;-74
2022/06/24 06:20:54;;;;;;;10.35;5.70;;;22.90;65.50;;;;;;9180909;19;20034;-71
2022/06/24 06:23:59;;;;;;;10.18;5.93;;;22.90;65.40;;;;;;9178785;19;20018;-71
2022/06/24 06:27:04;;;;;;;10.38;6.20;;;22.90;65.50;;;;;;9178152;19;20557;-71
2022/06/24 06:30:13;;;;;;;13.48;5.85;;;23.00;65.70;;;;;;9176928;19;20034;-72
2022/06/24 06:33:23;;;;;;;11.10;6.43;;;22.90;65.80;;;;;;9176826;19;20052;-69
2022/06/24 06:36:28;;;;;;;11.32;5.85;;;22.90;65.90;;;;;;9178001;19;20015;-70
2022/06/24 06:39:33;;;;;;;9.35;6.40;;;22.90;65.90;;;;;;9178213;19;20022;-70
2022/06/24 06:42:38;;;;;;;11.88;6.45;;;22.90;65.90;;;;;;9173018;19;20470;-71
2022/06/24 06:45:43;;;;;;;13.85;5.97;;;22.90;66.00;;;;;;9175398;19;20018;-67
2022/06/24 06:48:50;;;;;;;8.98;5.90;;;22.90;66.10;;;;;;9171167;19;20021;-69
2022/06/24 06:51:55;;;;;;;9.32;6.60;;;22.90;66.40;;;;;;9179665;19;20027;-73
2022/06/24 06:55:02;;;;;;;10.40;6.43;;;22.90;66.30;;;;;;9177716;19;20022;-74
2022/06/24 06:58:07;;;;;;;15.60;6.80;;;22.90;66.40;;;;;;9173667;19;20018;-73
2022/06/24 07:01:12;;;;;;;11.88;7.38;;;22.90;66.50;;;;;;9177529;19;20019;-73
2022/06/24 07:04:21;;;;;;;10.50;7.32;;;22.90;66.60;;;;;;9176086;19;20023;-73
2022/06/24 07:07:26;;;;;;;9.07;6.90;;;22.90;66.80;;;;;;9174783;19;20100;-72
2022/06/24 07:10:31;;;;;;;8.13;6.45;;;22.90;66.90;;;;;;9177697;19;20357;-73
2022/06/24 07:13:36;;;;;;;10.10;6.57;;;22.90;67.00;;;;;;9186330;19;20344;-74
2022/06/24 07:16:41;;;;;;;10.57;6.88;;;22.90;67.10;;;;;;9183517;19;20010;-71
2022/06/24 07:19:49;;;;;;;12.80;7.28;;;22.80;67.20;;;;;;9183797;19;20022;-70
2022/06/24 07:23:00;;;;;;;9.63;7.72;;;22.80;67.40;;;;;;9189191;19;20410;-72
2022/06/24 07:26:05;;;;;;;11.82;7.40;;;22.80;67.40;;;;;;9181637;19;20014;-70
2022/06/24 07:29:10;;;;;;;10.68;7.32;;;22.80;67.50;;;;;;9178769;19;20034;-70
2022/06/24 07:32:15;;;;;;;11.18;7.55;;;22.80;67.60;;;;;;9186515;19;20014;-71
2022/06/24 07:35:23;;;;;;;10.40;7.65;;;22.80;67.80;;;;;;9181285;19;20364;-72
2022/06/24 07:38:48;;;;;;;11.32;7.88;;;22.80;68.00;;;;;;9186141;19;20022;-72
2022/06/24 07:41:53;;;;;;;16.63;7.50;;;22.80;67.80;;;;;;9180501;19;20805;-72
2022/06/24 07:44:58;;;;;;;11.07;7.00;;;22.80;68.00;;;;;;9183607;19;20015;-72
2022/06/24 07:48:04;;;;;;;12.82;6.68;;;22.80;68.10;;;;;;9180661;19;20019;-71
2022/06/24 07:51:17;;;;;;;12.75;6.95;;;22.80;68.20;;;;;;9182842;19;20015;-72
2022/06/24 07:54:24;;;;;;;9.70;6.35;;;22.80;68.60;;;;;;9185784;19;20022;-72
2022/06/24 07:57:26;;;;;;;11.05;6.38;;;22.70;68.20;;;;;;9182873;19;20951;-72
2022/06/24 08:00:31;;;;;;;9.55;6.50;;;22.80;68.40;;;;;;9178964;19;20015;-72
2022/06/24 08:03:37;;;;;;;8.80;6.15;;;22.80;68.50;;;;;;9182265;19;20025;-68
2022/06/24 08:06:49;;;;;;;9.32;6.07;;;22.70;68.50;;;;;;9179595;19;20095;-74
2022/06/24 08:09:54;;;;;;;7.97;5.10;;;22.70;68.70;;;;;;9180761;19;20391;-72
2022/06/24 08:12:59;;;;;;;6.75;4.28;;;22.70;68.60;;;;;;9172214;19;20395;-71
2022/06/24 08:16:05;;;;;;;7.95;5.00;;;22.60;68.50;;;;;;9175025;19;21401;-74
2022/06/24 08:19:10;;;;;;;10.38;5.43;;;22.60;68.70;;;;;;9181680;19;20011;-73
2022/06/24 08:22:19;;;;;;;10.43;4.57;;;22.60;68.80;;;;;;9182425;19;20483;-73
2022/06/24 08:25:24;;;;;;;7.70;4.13;;;22.50;68.90;;;;;;9181353;19;20489;-71
2022/06/24 08:28:29;;;;;;;4.55;3.85;;;22.50;68.90;;;;;;9179067;19;20409;-72
2022/06/24 08:31:34;;;;;;;7.85;4.30;;;22.40;68.90;;;;;;9178944;19;20023;-74
2022/06/24 08:34:39;;;;;;;7.18;3.40;;;22.40;69.00;;;;;;9184391;19;20025;-73
2022/06/24 08:38:07;;;;;;;9.18;4.05;;;22.40;69.10;;;;;;9182604;19;20021;-73
2022/06/24 08:41:13;;;;;;;5.82;3.55;;;22.40;69.20;;;;;;9184726;19;20022;-76
2022/06/24 08:44:18;;;;;;;5.03;3.40;;;22.30;69.20;;;;;;9181357;19;20029;-76
2022/06/24 08:47:23;;;;;;;8.60;3.35;;;22.30;69.30;;;;;;9175867;19;20018;-77
2022/06/24 08:50:29;;;;;;;10.98;3.95;;;22.20;69.30;;;;;;9174105;19;20026;-74
2022/06/24 08:53:38;;;;;;;11.13;3.60;;;22.20;69.40;;;;;;9178873;19;20352;-73
2022/06/24 08:56:43;;;;;;;9.18;3.50;;;22.20;69.70;;;;;;9179283;19;20360;-73
2022/06/24 08:59:49;;;;;;;8.30;3.35;;;22.10;69.60;;;;;;9183061;19;20022;-73
2022/06/24 09:02:54;;;;;;;8.90;3.20;;;22.10;70.00;;;;;;9179836;19;20627;-71
2022/06/24 09:05:59;;;;;;;7.75;3.50;;;22.00;69.80;;;;;;9180965;19;20475;-71
2022/06/24 09:09:06;;;;;;;7.43;3.47;;;22.00;69.80;;;;;;9179926;19;20352;-69
2022/06/24 09:12:15;;;;;;;8.30;3.40;;;21.90;70.10;;;;;;9174450;19;20010;-70
2022/06/24 09:15:20;;;;;;;4.57;2.70;;;21.90;70.10;;;;;;9180050;19;20029;-71
2022/06/24 09:18:25;;;;;;;8.73;3.35;;;21.80;70.10;;;;;;9180983;19;20481;-70
2022/06/24 09:21:36;;;;;;;8.10;3.15;;;21.80;70.20;;;;;;9178021;19;20526;-69
2022/06/24 09:24:51;;;;;;;4.93;3.22;;;21.70;70.50;;;;;;9176349;19;20029;-70
2022/06/24 09:27:58;;;;;;;10.50;3.40;;;21.70;70.90;;;;;;9177168;19;20042;-69
2022/06/24 09:31:04;;;;;;;16.67;4.22;;;21.60;70.60;;;;;;9178136;19;20018;-69
2022/06/24 09:34:12;;;;;;;9.55;3.38;;;21.60;70.80;;;;;;9175267;19;20022;-69
2022/06/24 09:37:37;;;;;;;6.28;2.90;;;21.50;70.90;;;;;;9175582;19;20026;-69
2022/06/24 09:40:44;;;;;;;6.43;3.60;;;21.50;71.40;;;;;;9174041;19;20322;-70
2022/06/24 09:43:50;;;;;;;5.15;3.25;;;21.50;71.20;;;;;;9172773;19;20013;-70
2022/06/24 09:47:04;;;;;;;8.20;3.42;;;21.50;71.30;;;;;;9173014;19;20010;-70
2022/06/24 09:50:10;;;;;;;8.65;3.53;;;21.50;71.70;;;;;;9172900;19;20029;-70
2022/06/24 09:53:17;;;;;;;5.25;3.25;;;21.50;71.50;;;;;;9173097;19;20015;-72
2022/06/24 09:56:26;;;;;;;5.70;3.67;;;21.50;71.60;;;;;;9172075;19;20489;-69
2022/06/24 10:02:52;;;;;;;7.28;3.42;;;21.50;71.80;;;;;;9170031;19;20033;-71
2022/06/24 10:06:04;;;;;;;6.45;3.85;;;21.50;71.80;;;;;;9172042;19;20018;-72
2022/06/24 10:09:10;;;;;;;7.10;4.43;;;21.50;72.10;;;;;;9174227;19;20015;-70
2022/06/24 10:12:21;;;;;;;8.60;4.72;;;21.50;72.00;;;;;;9167974;19;20003;-70
2022/06/24 10:15:27;;;;;;;9.63;4.95;;;21.50;72.40;;;;;;9172213;19;20581;-68
2022/06/24 10:18:35;;;;;;;6.38;4.90;;;21.50;72.30;;;;;;9175498;19;20486;-69
2022/06/24 10:21:41;;;;;;;10.55;6.15;;;21.50;72.40;;;;;;9172104;19;20018;-70
2022/06/24 10:24:46;;;;;;;8.30;5.65;;;21.50;72.60;;;;;;9173698;19;20056;-70
2022/06/24 10:28:09;;;;;;;8.30;5.75;;;21.60;72.80;;;;;;9172187;19;20018;-71
2022/06/24 10:31:14;;;;;;;9.98;5.55;;;21.60;73.50;;;;;;9171120;19;20502;-70
2022/06/24 10:34:30;;;;;;;9.45;5.45;;;21.70;73.00;;;;;;9173034;19;20578;-70
2022/06/24 10:37:36;;;;;;;6.45;5.47;;;21.80;73.50;;;;;;9172946;19;20021;-70
2022/06/24 10:40:44;;;;;;;8.20;5.45;;;21.90;73.10;;;;;;9173677;19;20025;-71
2022/06/24 10:43:53;;;;;;;8.05;5.32;;;22.00;73.20;;;;;;9171988;19;20451;-70
2022/06/24 10:47:28;;;;;;;9.60;5.07;;;22.20;73.30;;;;;;9179630;19;21002;-70
2022/06/24 10:50:33;;;;;;;;;;;22.20;73.40;;;;;;9188047;19;20014;-76
2022/06/24 10:54:09;;;;;;;7.95;4.82;;;22.40;72.50;;;;;;9185253;19;19927;-75
2022/06/24 10:57:14;;;;;;;9.75;4.55;;;22.50;72.90;;;;;;9183589;19;20011;-69
2022/06/24 11:00:24;;;;;;;7.13;4.20;;;22.60;72.50;;;;;;9182595;19;20020;-70
2022/06/24 11:03:41;;;;;;;7.20;4.35;;;22.70;72.50;;;;;;9181387;19;20023;-71
2022/06/24 11:07:13;;;;;;;8.18;4.20;;;22.70;72.50;;;;;;9184159;19;20020;-71
2022/06/24 11:10:19;;;;;;;7.22;4.47;;;22.80;72.40;;;;;;9183246;19;20025;-71
2022/06/24 11:13:25;;;;;;;7.40;5.05;;;22.80;72.20;;;;;;9174865;19;20015;-70
2022/06/24 11:16:33;;;;;;;7.40;4.68;;;22.90;72.30;;;;;;9182664;19;20014;-71
2022/06/24 11:19:42;;;;;;;6.13;4.07;;;22.90;72.30;;;;;;9181992;19;20041;-72
2022/06/24 11:22:50;;;;;;;10.20;4.43;;;22.90;72.30;;;;;;9183320;19;20019;-69
2022/06/24 11:25:57;;;;;;;6.97;4.45;;;23.00;72.20;;;;;;9179893;19;20806;-72
2022/06/24 11:29:02;;;;;;;5.90;3.80;;;23.00;72.20;;;;;;9177263;19;20506;-72
2022/06/24 11:32:10;;;;;;;6.35;4.28;;;23.00;72.00;;;;;;9176121;19;20018;-72
2022/06/24 11:35:19;;;;;;;5.35;3.90;;;23.10;72.00;;;;;;9179043;19;20109;-73
2022/06/24 11:38:24;;;;;;;6.32;4.20;;;23.10;72.00;;;;;;9177677;19;20022;-73
2022/06/24 11:41:31;;;;;;;6.30;3.53;;;23.20;71.90;;;;;;9179268;19;20459;-72
2022/06/24 11:44:56;;;;;;;6.55;3.70;;;23.20;71.70;;;;;;9174735;19;20037;-71
2022/06/24 11:48:03;;;;;;;14.77;4.57;;;23.20;71.60;;;;;;9175291;19;20022;-71
2022/06/24 11:51:19;;;;;;;5.40;4.38;;;23.30;71.70;;;;;;9174775;19;20015;-72
2022/06/24 11:54:28;;;;;;;6.05;3.85;;;23.30;71.70;;;;;;9174875;19;20021;-72
2022/06/24 11:57:33;;;;;;;8.18;4.47;;;23.30;71.50;;;;;;9174199;19;20018;-72
2022/06/24 12:00:40;;;;;;;8.75;4.10;;;23.30;71.40;;;;;;9174272;19;20021;-73
2022/06/24 12:03:50;;;;;;;8.63;4.40;;;23.30;71.50;;;;;;9176765;19;20712;-72
2022/06/24 12:06:55;;;;;;;10.50;5.50;;;23.40;71.50;;;;;;9177958;19;20019;-71
2022/06/24 12:10:01;;;;;;;8.98;5.45;;;23.40;71.30;;;;;;9177464;19;20026;-71
2022/06/24 12:13:08;;;;;;;11.05;5.28;;;23.40;71.30;;;;;;9172334;19;20025;-71
2022/06/24 12:16:13;;;;;;;7.57;4.68;;;23.50;71.20;;;;;;9166094;19;20476;-71
2022/06/24 12:19:27;;;;;;;13.95;5.15;;;23.50;71.00;;;;;;9167574;19;20018;-71
2022/06/24 12:22:33;;;;;;;8.40;4.75;;;23.60;71.00;;;;;;9173052;19;20033;-71
2022/06/24 12:25:41;;;;;;;7.70;5.00;;;23.60;70.80;;;;;;9178227;19;20014;-72
2022/06/24 12:28:47;;;;;;;7.03;5.03;;;23.70;70.80;;;;;;9179292;19;20407;-73
2022/06/24 12:31:54;;;;;;;6.60;5.20;;;23.80;70.70;;;;;;9178377;19;20010;-74
2022/06/24 12:35:01;;;;;;;6.30;5.10;;;23.80;70.50;;;;;;9180261;19;20018;-72
2022/06/24 12:38:07;;;;;;;9.32;5.82;;;23.80;70.30;;;;;;9175662;19;20403;-72
2022/06/24 12:41:14;;;;;;;9.35;5.43;;;23.90;70.30;;;;;;9174555;19;21636;-72
2022/06/24 12:44:19;;;;;;;6.68;5.13;;;23.90;70.20;;;;;;9175990;19;20085;-74
2022/06/24 12:50:45;;;;;;;11.48;5.85;;;24.00;70.00;;;;;;9176607;19;20019;-71
2022/06/24 12:53:52;;;;;;;8.45;5.20;;;24.00;70.00;;;;;;9178573;19;20467;-71
2022/06/24 12:56:58;;;;;;;10.18;6.20;;;24.00;69.80;;;;;;9179124;19;20053;-71
2022/06/24 13:00:07;;;;;;;8.80;6.30;;;24.00;69.80;;;;;;9168021;19;20014;-72
2022/06/24 13:03:12;;;;;;;7.70;6.35;;;24.10;69.80;;;;;;9172000;19;20022;-69
2022/06/24 13:06:23;;;;;;;11.43;7.13;;;24.10;69.70;;;;;;9167187;19;20018;-71
2022/06/24 13:09:28;;;;;;;10.23;7.40;;;24.10;69.40;;;;;;9167214;19;20366;-72
2022/06/24 13:12:33;;;;;;;11.45;6.55;;;24.10;69.30;;;;;;9169428;19;20026;-72
2022/06/24 13:15:39;;;;;;;11.75;7.32;;;24.20;69.40;;;;;;9177418;19;20021;-71
2022/06/24 13:18:44;;;;;;;10.65;7.13;;;24.20;69.50;;;;;;9176598;19;20486;-72
2022/06/24 13:21:52;;;;;;;10.23;7.60;;;24.30;69.60;;;;;;9174413;19;20018;-69
2022/06/24 13:24:57;;;;;;;13.52;9.75;;;24.40;69.70;;;;;;9172715;19;20025;-70
2022/06/24 13:28:02;;;;;;;17.08;9.85;;;24.50;69.40;;;;;;9173440;19;20379;-71
2022/06/24 13:31:07;;;;;;;14.40;9.45;;;24.70;69.20;;;;;;9170577;19;20025;-70
2022/06/24 13:34:12;;;;;;;17.52;10.10;;;24.80;69.10;;;;;;9170004;19;20022;-70
2022/06/24 13:37:20;;;;;;;14.77;10.48;;;25.00;69.00;;;;;;9175329;19;20025;-71
2022/06/24 13:40:25;;;;;;;15.20;11.10;;;25.10;68.90;;;;;;9173032;19;20014;-71
2022/06/24 13:43:31;;;;;;;14.45;11.18;;;25.20;68.60;;;;;;9171419;19;20490;-71
2022/06/24 13:46:36;;;;;;;14.02;10.32;;;25.40;68.50;;;;;;9172270;19;20343;-72
2022/06/24 13:49:41;;;;;;;14.00;10.40;;;25.50;68.30;;;;;;9170367;19;20018;-73
2022/06/24 13:52:49;;;;;;;16.75;10.80;;;25.60;68.10;;;;;;9172048;19;20022;-71
2022/06/24 13:55:54;;;;;;;14.75;10.02;;;25.70;67.80;;;;;;9171832;19;20403;-72
2022/06/24 13:58:59;;;;;;;16.80;11.73;;;25.90;67.70;;;;;;9170428;19;20019;-71
2022/06/24 14:02:04;;;;;;;17.95;11.57;;;26.00;67.40;;;;;;9172928;19;20511;-70
2022/06/24 14:05:29;;;;;;;13.57;9.85;;;26.00;67.00;;;;;;9169945;19;20113;-71
2022/06/24 14:08:36;;;;;;;14.85;11.88;;;26.10;67.00;;;;;;9175041;19;20011;-70
2022/06/24 14:11:42;;;;;;;17.65;12.68;;;26.20;66.80;;;;;;9165606;19;20022;-69
2022/06/24 14:14:47;;;;;;;17.92;11.02;;;26.20;66.60;;;;;;9169317;19;20014;-73
2022/06/24 14:17:52;;;;;;;16.02;10.23;;;26.30;66.60;;;;;;9173633;19;20010;-68
2022/06/24 14:20:58;;;;;;;15.38;10.57;;;26.30;66.60;;;;;;9176780;19;20021;-70
2022/06/24 14:27:35;;;;;;;15.57;11.13;;;26.30;66.00;;;;;;9180549;19;20018;-70
2022/06/24 14:30:40;;;;;;;14.65;10.75;;;26.30;65.80;;;;;;9183564;19;20057;-69
2022/06/24 14:33:46;;;;;;;13.52;9.82;;;26.30;65.60;;;;;;9174760;19;20010;-70
2022/06/24 14:36:51;;;;;;;13.82;10.32;;;26.30;65.50;;;;;;9180581;19;20025;-71
2022/06/24 14:40:11;;;;;;;13.07;9.73;;;26.30;65.40;;;;;;9180307;19;20014;-70
2022/06/24 14:43:36;;;;;;;14.95;9.15;;;26.20;65.40;;;;;;9182432;19;20031;-69
2022/06/24 14:46:41;;;;;;;14.27;10.05;;;26.20;65.40;;;;;;9181425;19;20056;-69
2022/06/24 14:49:47;;;;;;;11.02;8.27;;;26.20;65.40;;;;;;9182204;19;20025;-70
2022/06/24 14:52:52;;;;;;;9.85;7.50;;;26.20;65.40;;;;;;9179641;19;20353;-70
2022/06/24 14:56:02;;;;;;;12.20;9.18;;;26.20;65.30;;;;;;9181802;19;20040;-70
2022/06/24 14:59:07;;;;;;;10.85;7.93;;;26.20;65.30;;;;;;9179025;19;20011;-70
2022/06/24 15:02:12;;;;;;;10.45;7.07;;;26.20;65.30;;;;;;9180805;19;20037;-70
2022/06/24 15:05:17;;;;;;;11.98;7.43;;;26.20;65.20;;;;;;9176241;19;20962;-69
2022/06/24 15:08:23;;;;;;;11.10;7.32;;;26.20;65.10;;;;;;9180583;19;20007;-71
2022/06/24 15:11:30;;;;;;;11.75;7.85;;;26.20;65.00;;;;;;9176144;19;20019;-71
2022/06/24 15:14:35;;;;;;;11.52;6.00;;;26.20;64.90;;;;;;9177621;19;20819;-70
2022/06/24 15:17:45;;;;;;;9.88;5.97;;;26.20;64.80;;;;;;9180931;19;20356;-70
2022/06/24 15:20:50;;;;;;;9.23;6.93;;;26.20;64.70;;;;;;9180264;19;20018;-70
2022/06/24 15:24:09;;;;;;;7.82;5.85;;;26.20;64.60;;;;;;9175640;19;20107;-71
2022/06/24 15:27:17;;;;;;;8.38;5.85;;;26.20;64.60;;;;;;9172954;19;20366;-69
2022/06/24 15:30:22;;;;;;;10.77;6.18;;;26.20;64.40;;;;;;9175187;19;20025;-69
2022/06/24 15:33:28;;;;;;;10.75;6.47;;;26.20;64.40;;;;;;9174546;19;20048;-70
2022/06/24 15:36:33;;;;;;;11.20;6.28;;;26.20;64.40;;;;;;9178416;19;20022;-69
2022/06/24 15:39:38;;;;;;;10.50;6.88;;;26.20;64.50;;;;;;9179883;19;20021;-69
2022/06/24 15:42:45;;;;;;;9.57;6.60;;;26.20;64.40;;;;;;9172743;19;20515;-71
2022/06/24 15:45:50;;;;;;;7.80;5.30;;;26.20;64.30;;;;;;9178313;19;20022;-70
2022/06/24 15:48:55;;;;;;;10.93;5.80;;;26.30;64.30;;;;;;9180517;19;20074;-70
2022/06/24 15:52:00;;;;;;;10.63;6.15;;;26.30;64.20;;;;;;9180333;19;20022;-69
2022/06/24 15:55:07;;;;;;;9.70;5.45;;;26.30;64.10;;;;;;9177321;19;20034;-69
2022/06/24 15:58:14;;;;;;;9.38;6.45;;;26.30;64.10;;;;;;9177516;19;20117;-69
2022/06/24 16:01:19;;;;;;;7.47;5.40;;;26.30;63.90;;;;;;9180403;19;20010;-69
2022/06/24 16:04:25;;;;;;;8.52;6.18;;;26.30;63.90;;;;;;9175977;19;20119;-69
2022/06/24 16:07:30;;;;;;;9.25;5.65;;;26.40;63.90;;;;;;9181165;19;20768;-69
2022/06/24 16:10:35;;;;;;;8.63;5.57;;;26.30;63.80;;;;;;9170502;19;20493;-69
2022/06/24 16:13:43;;;;;;;7.20;4.50;;;26.30;63.70;;;;;;9178739;19;20357;-68
2022/06/24 16:16:48;;;;;;;6.47;4.38;;;26.30;63.50;;;;;;9179225;19;20808;-68
2022/06/24 16:19:53;;;;;;;6.10;4.30;;;26.20;63.40;;;;;;9176739;19;20021;-70
2022/06/24 16:23:12;;;;;;;7.25;4.15;;;26.20;63.40;;;;;;9179818;19;20099;-72
2022/06/24 16:29:37;;;;;;;4.97;3.17;;;26.20;63.40;;;;;;9176384;19;20018;-69
2022/06/24 16:32:42;;;;;;;5.30;3.45;;;26.10;63.20;;;;;;9167977;19;20014;-68